SBTT/TBT METAR and TAF weather

Enter ICAO airport designator
Station Type Date Time Source
SBTT METAR 2021/08/01 17:00 UTC NOAA

SBTT 011700Z 20003KT 140V270 CAVOK 27/18 Q1019


Station Type Date Time Source
SBTT Decoded METAR 2021/08/01 17:00 UTC NOAA

Tabatinga, Brazil (SBTT) 03-40S 069-40W
Aug 01, 2021 - 01:00 PM EDT / 2021.08.01 1700 UTC
Wind: from the SSW (200 degrees) at 3 MPH (3 KT) (direction variable):0
Visibility: greater than 7 mile(s):0
Temperature: 80 F (27 C)
Dew Point: 64 F (18 C)
Relative Humidity: 57%
Pressure (altimeter): 30.09 in. Hg (1019 hPa)
ob: SBTT 011700Z 20003KT 140V270 CAVOK 27/18 Q1019
cycle: 17

Station Type Date Time Source
SBTT TAF 2021/08/01 18:57 UTC NOAA

TAF TAF SBTT 011500Z 0118/0218 20005KT 9999 SCT025 TN23/0212Z TX30/0218Z
BECMG 0122/0124 25005KT
BECMG 0212/0214 28005KT SCT015
BECMG 0216/0217 19013KT SCT035
RMK PGB

Example: see airport list